Главная страница
METAR-TAF:

METAR-TAF

Аэропорты :

Сённерборг, Дания

широта: 54-58N, долгота: 009-47E, высота над уровнем моря: 7 м

Текущие метеонаблюдения

Эта сводка был подготовлена 32 минут назад, в 17:50 UTC
Ветер 8 Узел от западный, изменяющийся между западный и северо-западный
Температура 7°C
Влажность 70%
Давление 1029 hPa
Видимость 10 км и более

METAR: EKSB 231750Z AUTO 28008KT 260V320 9999NDV FEW180/// SCT220/// 07/02 Q1029

Время: 19:22 (18:22 UTC)

Прогноз

Эта сводка был подготовлена 12 часа и 29 минут назад, в 05:53 UTC
Прогноз действительный с 23-го 06 UTC до 23-го 11 UTC
Ветер 5 Узел от западный-юго-западный
Видимость: 2500 м
Рассеянная облачность на высоте 500 фута
дымка
изменения
С 23-го 06 UTC до 23-го 07 UTC
Видимость: 3000 м
изменения
С 23-го 07 UTC до 23-го 10 UTC
Ветер 12 Узел от западно-северо-западный
Видимость 10 км и более
Отдельные облака на высоте 2000 фута

TAF: EKSB 230553Z 2306/2311 24005KT 2500 BR BKN005 BECMG 2306/2307 3000 BECMG 2307/2310 29012KT 9999 NSW SCT020

Метеонаблюдения и прогнозы для более 4000 аэропортов (сводки METAR и TAF).

Имеющиеся станции представлены на карте желтыми и красными точками.

Чтобы увидеть название станции, наведите на нее мышь.

Затем щелкните, чтобы увидеть метеонаблюдения и метеопрогнозы.

Управление картой: чтобы увеличить масштаб, щелкните зеленые кнопки с черным крестиком; чтобы уменьшить масштаб, щелкните зеленую кнопку с тире; для просмотра соседних карт щелкайте зеленые стрелки.


METAR-TAF: